ESGJ/JKG METAR and TAF weather

Enter ICAO airport designator
Station Type Date Time Source
ESGJ METAR 2019/02/23 16:50 UTC NOAA

ESGJ 231650Z AUTO 25008KT 9999 BKN150/// 03/01 Q1035


Station Type Date Time Source
ESGJ Decoded METAR 2019/02/23 16:50 UTC NOAA

Jonkoping Flygplats, Sweden (ESGJ) 57-46N 014-05E 232M
Feb 23, 2019 - 11:50 AM EST / 2019.02.23 1650 UTC
Wind: from the WSW (250 degrees) at 9 MPH (8 KT):0
Visibility: greater than 7 mile(s):0
Sky conditions: mostly cloudy
Temperature: 37 F (3 C)
Dew Point: 33 F (1 C)
Relative Humidity: 86%
Pressure (altimeter): 30.56 in. Hg (1035 hPa)
ob: ESGJ 231650Z AUTO 25008KT 9999 BKN150/// 03/01 Q1035
cycle: 17

Station Type Date Time Source
ESGJ TAF 2015/05/01 23:06 UTC NOAA

TAF TAF ESGJ 302359Z 3023/0101 CNL


Example: see airport list